Las Vegas, Nevada
Traffic Map
Current Weather Conditions
Las Vegas, Nevada
Clear
Clear
33°
Feels Like: 33°
Wind Chill: 33° Ceiling: Unl
Heat Index: 33° Visibility: 10mi
Dew Point: Wind: 8mph
Humidity: 18% Direction: 230° (SW)
Pressure: 29.77in Gusts: 0mph
Raw Report DataKLAS 030556Z 23007KT 10SM CLR 33/06 A2977 RMK AO2 SLP049 T03330056 10394 20333 50006
Traffic Incident Summary
Active as of:
Severity:
Category:
InformationThere was an issue retrieving the traffic information for this location. Please try a different location or try again shortly.
Advertisements
Track Severe Weather on mobile